Blackpipe, South Dakota
Current Conditions -  °F | °C
As of 4:55 PM on Saturday 25 Oct 2014 (Local Time) from KPHP Reporting Station
Clear Clear  
Wind Chill: 69°   Ceiling: Unl
Heat Index: 69°   Visibility: 10mi
Dew Point: 32°   Wind: 15mph
Humidity: 25%   Direction: 140°SE
Pressure: 30.01"   Gusts: NA
Location:  43.4752°N, 101.081°W
Report Text: KPHP 252155Z AUTO 14013KT 10SM CLR 21/00 A3001 RMK AO2 SLP160 T02060000
Loading
Personal Weather Stations






























Interactive Weather Map
Tropical Storm Tracking
New forecast layout! Learn more

10-Day Weather Forecast

Advertisements
Track Severe Weather on mobile